Bookmark and Share
Track history (hours):
 

Adriatic Id

Last reported at 2014-Mar-10 07:11 UTC. Time now 2014-Apr-24 04:09 UTC.
Position N 01°14' E 103°29'.
Warning: this ship's position is 44 days out of date.

Length 158 m; draft 7.1 m.

Type: Cargo ship. MMSI: 477559800.

NotesDate/timePositionNaut miles runAvg speedWind from/ knotsBaromVisibWave heightAir tempDewpointWater temp
2014-Mar-10 07:11N 01°14' E 103°29'914.3
2014-Mar-10 06:34N 01°11' E 103°38'1212.0
2014-Mar-10 05:33N 01°11' E 103°50'6 0.5
2014-Mar-09 17:24N 01°16' E 103°53'0 0.0
2014-Mar-09 15:06N 01°16' E 103°53'2 2.9
2014-Mar-09 14:33N 01°14' E 103°53'8 7.6
2014-Mar-09 13:33N 01°15' E 104°01'  
2014-Mar-04 15:13N 24°32' E 119°17'42710.7
2014-Mar-02 23:30N 31°18' E 121°46'1212.2
2014-Mar-02 22:33N 31°23' E 121°34'3 3.4
2014-Mar-02 21:33N 31°21' E 121°31'0 0.0
2014-Mar-02 20:31N 31°21' E 121°31'0 0.0
2014-Mar-02 19:31N 31°21' E 121°31'0 0.0
2014-Mar-02 18:19N 31°21' E 121°31'0 0.0
2014-Mar-02 17:25N 31°21' E 121°31'0 0.0
2014-Mar-02 16:31N 31°21' E 121°31'0 0.0
2014-Mar-02 15:25N 31°21' E 121°31'0 0.0
2014-Mar-02 14:19N 31°21' E 121°31'0 0.0
2014-Mar-02 13:31N 31°21' E 121°31'0 0.0
2014-Mar-02 12:31N 31°21' E 121°31'0 0.0
2014-Mar-02 11:18N 31°21' E 121°31'0 0.0
2014-Mar-02 10:30N 31°21' E 121°31'0 0.0
2014-Mar-02 09:30N 31°21' E 121°31'0 0.0
2014-Mar-02 08:12N 31°21' E 121°31'0 0.0
2014-Mar-02 07:30N 31°21' E 121°31'0 0.0
2014-Mar-02 06:30N 31°21' E 121°31'0 0.0
2014-Mar-02 05:24N 31°21' E 121°31'0 0.0
2014-Mar-02 04:30N 31°21' E 121°31'0 0.0
2014-Mar-02 03:24N 31°21' E 121°31'0 0.0
2014-Mar-02 02:24N 31°21' E 121°31'0 0.0
2014-Mar-02 01:24N 31°21' E 121°31'0 0.0
2014-Mar-02 00:12N 31°21' E 121°31'0 0.0
2014-Mar-01 23:30N 31°21' E 121°31'0 0.0
2014-Mar-01 22:30N 31°21' E 121°31'0 0.0
2014-Mar-01 21:30N 31°21' E 121°31'0 0.0
2014-Mar-01 20:24N 31°21' E 121°31'0 0.0
2014-Mar-01 19:24N 31°21' E 121°31'0 0.0
2014-Mar-01 18:30N 31°21' E 121°31'0 0.0
2014-Mar-01 17:24N 31°21' E 121°31'0 0.0
2014-Mar-01 16:24N 31°21' E 121°31'0 0.0
2014-Mar-01 15:30N 31°21' E 121°31'0 0.0
2014-Mar-01 14:24N 31°21' E 121°31'0 0.0
2014-Mar-01 13:30N 31°21' E 121°31'0 0.0
2014-Mar-01 12:24N 31°21' E 121°31'0 0.0
2014-Mar-01 11:24N 31°21' E 121°31'0 0.0
2014-Mar-01 10:24N 31°21' E 121°31'0 0.0
2014-Mar-01 09:30N 31°21' E 121°31'0 0.0
2014-Mar-01 08:24N 31°21' E 121°31'0 0.0
2014-Mar-01 07:30N 31°21' E 121°31'1 0.7
2014-Mar-01 06:33N 31°21' E 121°30'4 4.4
2014-Mar-01 05:33N 31°23' E 121°35'7 7.1
2014-Mar-01 04:33N 31°19' E 121°42'8 8.1
2014-Mar-01 03:33N 31°13' E 121°48'  

Dump ship's entire track history

sailing weather and tide predictions

Adriatic Id — VRFP6 — position and weather